SHT22A EGLL-EGJB
Flight info
| Callsign | SHT22A |
|---|---|
| Flight time | 0h 35m |
| Altitude | 20000 |
| Route | GASGU2J GASGU N866 SAM N63 LELNA LELNA1V |
| Aircraft | A320/M-SDE3FGHIRWY/LB1 |
Departure
| Time | 2026-04-22 13:40 |
|---|---|
| Airport | London Heathrow Airport (EGLL) |
Arrival
| Time | 2026-04-22 14:16 |
|---|---|
| Airport | Guernsey Airport (EGJB) |
| Time | Latitude | Longitude | Altitude | Speed | Heading |
|---|---|---|---|---|---|
| 2026-04-22 13:12 | 51.47404 | -0.48891 | 90 ft | 0 kts | 179° |
| 2026-04-22 13:31 | 51.47405 | -0.48891 | 86 ft | 1 kts | 179° |
| 2026-04-22 13:31 | 51.47430 | -0.48891 | 88 ft | 4 kts | 179° |
| 2026-04-22 13:31 | 51.47455 | -0.48891 | 88 ft | 2 kts | 179° |
| 2026-04-22 13:31 | 51.47475 | -0.48894 | 86 ft | 4 kts | 158° |
| 2026-04-22 13:32 | 51.47496 | -0.48915 | 89 ft | 2 kts | 134° |
| 2026-04-22 13:32 | 51.47509 | -0.48937 | 90 ft | 0 kts | 134° |
| 2026-04-22 13:36 | 51.47508 | -0.48936 | 90 ft | 1 kts | 134° |
| 2026-04-22 13:36 | 51.47495 | -0.48907 | 86 ft | 7 kts | 124° |
| 2026-04-22 13:36 | 51.47486 | -0.48801 | 87 ft | 12 kts | 90° |
| 2026-04-22 13:36 | 51.47486 | -0.48656 | 88 ft | 14 kts | 89° |
| 2026-04-22 13:37 | 51.47475 | -0.48501 | 90 ft | 14 kts | 129° |
| 2026-04-22 13:37 | 51.47374 | -0.48475 | 86 ft | 16 kts | 180° |
| 2026-04-22 13:37 | 51.47264 | -0.48473 | 86 ft | 15 kts | 179° |
| 2026-04-22 13:37 | 51.47149 | -0.48472 | 86 ft | 18 kts | 180° |
| 2026-04-22 13:38 | 51.47028 | -0.48471 | 88 ft | 18 kts | 179° |
| 2026-04-22 13:38 | 51.46791 | -0.48470 | 88 ft | 17 kts | 179° |
| 2026-04-22 13:38 | 51.46664 | -0.48467 | 86 ft | 19 kts | 179° |
| 2026-04-22 13:39 | 51.46523 | -0.48467 | 86 ft | 15 kts | 176° |
| 2026-04-22 13:39 | 51.46479 | -0.48337 | 87 ft | 11 kts | 90° |
| 2026-04-22 13:39 | 51.46479 | -0.48299 | 88 ft | 20 kts | 90° |
| 2026-04-22 13:39 | 51.46481 | -0.47682 | 86 ft | 88 kts | 90° |
| 2026-04-22 13:40 | 51.46485 | -0.46419 | 94 ft | 136 kts | 90° |
| 2026-04-22 13:40 | 51.46485 | -0.44786 | 433 ft | 152 kts | 90° |
| 2026-04-22 13:40 | 51.46493 | -0.43077 | 1124 ft | 152 kts | 88° |
| 2026-04-22 13:40 | 51.46362 | -0.41340 | 1618 ft | 170 kts | 110° |
| 2026-04-22 13:41 | 51.45622 | -0.39656 | 1983 ft | 198 kts | 123° |
| 2026-04-22 13:41 | 51.44768 | -0.37759 | 2437 ft | 222 kts | 121° |
| 2026-04-22 13:41 | 51.43855 | -0.35646 | 3198 ft | 236 kts | 122° |
| 2026-04-22 13:41 | 51.42642 | -0.33815 | 4184 ft | 246 kts | 144° |
| 2026-04-22 13:42 | 51.41018 | -0.32849 | 5220 ft | 255 kts | 167° |
| 2026-04-22 13:42 | 51.39208 | -0.32981 | 5790 ft | 269 kts | 190° |
| 2026-04-22 13:42 | 51.37539 | -0.34416 | 5976 ft | 280 kts | 216° |
| 2026-04-22 13:42 | 51.36125 | -0.36512 | 6014 ft | 281 kts | 217° |
| 2026-04-22 13:43 | 51.34680 | -0.38660 | 6015 ft | 280 kts | 217° |
| 2026-04-22 13:43 | 51.33244 | -0.40769 | 6015 ft | 280 kts | 217° |
| 2026-04-22 13:43 | 51.31805 | -0.42875 | 5988 ft | 281 kts | 218° |
| 2026-04-22 13:43 | 51.30593 | -0.45367 | 6080 ft | 292 kts | 238° |
| 2026-04-22 13:44 | 51.29859 | -0.48420 | 7040 ft | 297 kts | 250° |
| 2026-04-22 13:44 | 51.29293 | -0.51554 | 7959 ft | 299 kts | 250° |
| 2026-04-22 13:44 | 51.28708 | -0.54761 | 8831 ft | 302 kts | 249° |
| 2026-04-22 13:44 | 51.28116 | -0.57990 | 9749 ft | 304 kts | 250° |
| 2026-04-22 13:45 | 51.27494 | -0.61246 | 10525 ft | 311 kts | 249° |
| 2026-04-22 13:45 | 51.26822 | -0.64662 | 10782 ft | 334 kts | 249° |
| 2026-04-22 13:45 | 51.26098 | -0.68303 | 11158 ft | 350 kts | 248° |
| 2026-04-22 13:45 | 51.25356 | -0.72046 | 11798 ft | 357 kts | 249° |
| 2026-04-22 13:46 | 51.24610 | -0.75835 | 12533 ft | 360 kts | 250° |
| 2026-04-22 13:46 | 51.23862 | -0.79656 | 13302 ft | 361 kts | 250° |
| 2026-04-22 13:46 | 51.23111 | -0.83505 | 14002 ft | 366 kts | 249° |
| 2026-04-22 13:46 | 51.22349 | -0.87401 | 14591 ft | 371 kts | 250° |
| 2026-04-22 13:47 | 51.21569 | -0.91329 | 15246 ft | 372 kts | 249° |
| 2026-04-22 13:47 | 51.20516 | -0.95039 | 15862 ft | 372 kts | 238° |
| 2026-04-22 13:47 | 51.19026 | -0.98403 | 16513 ft | 372 kts | 227° |
| 2026-04-22 13:47 | 51.17202 | -1.01343 | 17085 ft | 376 kts | 223° |
| 2026-04-22 13:48 | 51.15310 | -1.04243 | 17687 ft | 379 kts | 224° |
| 2026-04-22 13:48 | 51.13403 | -1.07164 | 18289 ft | 382 kts | 224° |
| 2026-04-22 13:48 | 51.11479 | -1.10113 | 18816 ft | 387 kts | 224° |
| 2026-04-22 13:48 | 51.09527 | -1.13105 | 19343 ft | 390 kts | 224° |
| 2026-04-22 13:49 | 51.07568 | -1.16109 | 19916 ft | 392 kts | 225° |
| 2026-04-22 13:49 | 51.05598 | -1.19127 | 20192 ft | 394 kts | 225° |
| 2026-04-22 13:49 | 51.03621 | -1.22156 | 20268 ft | 396 kts | 226° |
| 2026-04-22 13:49 | 51.01632 | -1.25196 | 20273 ft | 397 kts | 225° |
| 2026-04-22 13:50 | 50.99636 | -1.28229 | 20272 ft | 397 kts | 225° |
| 2026-04-22 13:50 | 50.97634 | -1.31270 | 20275 ft | 398 kts | 225° |
| 2026-04-22 13:50 | 50.95542 | -1.34139 | 20274 ft | 398 kts | 217° |
| 2026-04-22 13:50 | 50.93168 | -1.36405 | 20265 ft | 399 kts | 207° |
| 2026-04-22 13:51 | 50.90680 | -1.38379 | 20273 ft | 401 kts | 207° |
| 2026-04-22 13:51 | 50.88190 | -1.40362 | 20273 ft | 400 kts | 207° |
| 2026-04-22 13:51 | 50.85721 | -1.42330 | 20272 ft | 397 kts | 207° |
| 2026-04-22 13:51 | 50.83249 | -1.44303 | 20271 ft | 397 kts | 207° |
| 2026-04-22 13:52 | 50.80786 | -1.46265 | 20271 ft | 397 kts | 207° |
| 2026-04-22 13:52 | 50.78316 | -1.48227 | 20275 ft | 397 kts | 207° |
| 2026-04-22 13:52 | 50.75847 | -1.50184 | 20273 ft | 397 kts | 207° |
| 2026-04-22 13:52 | 50.73377 | -1.52141 | 20270 ft | 397 kts | 207° |
| 2026-04-22 13:53 | 50.70907 | -1.54101 | 20275 ft | 397 kts | 207° |
| 2026-04-22 13:53 | 50.68438 | -1.56062 | 20274 ft | 397 kts | 207° |
| 2026-04-22 13:53 | 50.65967 | -1.58022 | 20272 ft | 398 kts | 207° |
| 2026-04-22 13:53 | 50.63493 | -1.59977 | 20273 ft | 398 kts | 207° |
| 2026-04-22 13:54 | 50.61021 | -1.61922 | 20279 ft | 397 kts | 207° |
| 2026-04-22 13:54 | 50.58548 | -1.63864 | 20270 ft | 398 kts | 207° |
| 2026-04-22 13:54 | 50.56073 | -1.65807 | 20276 ft | 397 kts | 207° |
| 2026-04-22 13:54 | 50.53599 | -1.67755 | 20278 ft | 397 kts | 207° |
| 2026-04-22 13:55 | 50.51129 | -1.69696 | 20279 ft | 397 kts | 208° |
| 2026-04-22 13:55 | 50.48659 | -1.71628 | 20273 ft | 397 kts | 207° |
| 2026-04-22 13:55 | 50.46184 | -1.73557 | 20272 ft | 397 kts | 207° |
| 2026-04-22 13:55 | 50.43713 | -1.75484 | 20272 ft | 397 kts | 207° |
| 2026-04-22 13:56 | 50.41242 | -1.77414 | 20270 ft | 397 kts | 207° |
| 2026-04-22 13:56 | 50.38771 | -1.79345 | 20268 ft | 397 kts | 207° |
| 2026-04-22 13:56 | 50.36299 | -1.81276 | 20269 ft | 397 kts | 207° |
| 2026-04-22 13:56 | 50.33830 | -1.83200 | 20270 ft | 397 kts | 207° |
| 2026-04-22 13:57 | 50.31358 | -1.85121 | 20267 ft | 396 kts | 206° |
| 2026-04-22 13:57 | 50.28893 | -1.87034 | 20272 ft | 395 kts | 206° |
| 2026-04-22 13:57 | 50.26433 | -1.88937 | 20275 ft | 394 kts | 206° |
| 2026-04-22 13:57 | 50.23975 | -1.90837 | 20272 ft | 394 kts | 206° |
| 2026-04-22 13:58 | 50.21524 | -1.92735 | 20268 ft | 393 kts | 206° |
| 2026-04-22 13:58 | 50.19077 | -1.94632 | 20270 ft | 393 kts | 206° |
| 2026-04-22 13:58 | 50.16631 | -1.96527 | 20274 ft | 392 kts | 206° |
| 2026-04-22 13:58 | 50.14187 | -1.98416 | 20275 ft | 391 kts | 206° |
| 2026-04-22 13:59 | 50.11777 | -2.00274 | 19907 ft | 383 kts | 206° |
| 2026-04-22 13:59 | 50.09440 | -2.02072 | 19119 ft | 375 kts | 206° |
| 2026-04-22 13:59 | 50.07154 | -2.03827 | 18656 ft | 358 kts | 206° |
| 2026-04-22 13:59 | 50.04963 | -2.05505 | 18162 ft | 344 kts | 206° |
| 2026-04-22 14:00 | 50.02857 | -2.07115 | 17713 ft | 330 kts | 206° |
| 2026-04-22 14:00 | 50.00834 | -2.08666 | 17287 ft | 319 kts | 205° |
| 2026-04-22 14:00 | 49.98867 | -2.10366 | 16854 ft | 321 kts | 214° |
| 2026-04-22 14:00 | 49.97178 | -2.12542 | 16433 ft | 320 kts | 225° |
| 2026-04-22 14:01 | 49.95688 | -2.15129 | 16006 ft | 322 kts | 228° |
| 2026-04-22 14:01 | 49.94208 | -2.17737 | 15566 ft | 322 kts | 227° |
| 2026-04-22 14:01 | 49.92697 | -2.20373 | 15126 ft | 322 kts | 227° |
| 2026-04-22 14:01 | 49.91223 | -2.22937 | 14693 ft | 323 kts | 227° |
| 2026-04-22 14:02 | 49.89725 | -2.25543 | 14255 ft | 324 kts | 227° |
| 2026-04-22 14:02 | 49.88226 | -2.28154 | 13799 ft | 325 kts | 227° |
| 2026-04-22 14:02 | 49.86727 | -2.30767 | 13336 ft | 324 kts | 226° |
| 2026-04-22 14:02 | 49.85231 | -2.33373 | 12888 ft | 323 kts | 225° |
| 2026-04-22 14:03 | 49.83740 | -2.35962 | 12458 ft | 322 kts | 227° |
| 2026-04-22 14:03 | 49.82250 | -2.38546 | 12025 ft | 321 kts | 227° |
| 2026-04-22 14:03 | 49.80764 | -2.41119 | 11596 ft | 320 kts | 225° |
| 2026-04-22 14:03 | 49.79280 | -2.43689 | 11166 ft | 320 kts | 224° |
| 2026-04-22 14:04 | 49.77794 | -2.46261 | 10728 ft | 320 kts | 226° |
| 2026-04-22 14:04 | 49.76312 | -2.48823 | 10414 ft | 316 kts | 226° |
| 2026-04-22 14:04 | 49.74874 | -2.51312 | 10285 ft | 306 kts | 224° |
| 2026-04-22 14:04 | 49.73472 | -2.53740 | 10091 ft | 299 kts | 226° |
| 2026-04-22 14:05 | 49.72084 | -2.56135 | 9667 ft | 302 kts | 225° |
| 2026-04-22 14:05 | 49.70692 | -2.58525 | 9416 ft | 296 kts | 226° |
| 2026-04-22 14:05 | 49.67795 | -2.62997 | 8626 ft | 293 kts | 216° |
| 2026-04-22 14:06 | 49.66251 | -2.65039 | 8273 ft | 291 kts | 217° |
| 2026-04-22 14:06 | 49.64696 | -2.67031 | 7922 ft | 290 kts | 216° |
| 2026-04-22 14:06 | 49.63148 | -2.69006 | 7584 ft | 288 kts | 214° |
| 2026-04-22 14:06 | 49.61623 | -2.70969 | 7066 ft | 284 kts | 214° |
| 2026-04-22 14:07 | 49.60108 | -2.72932 | 6430 ft | 284 kts | 215° |
| 2026-04-22 14:07 | 49.58614 | -2.74885 | 5829 ft | 280 kts | 214° |
| 2026-04-22 14:07 | 49.57123 | -2.76840 | 5076 ft | 282 kts | 215° |
| 2026-04-22 14:07 | 49.55629 | -2.78800 | 4296 ft | 282 kts | 214° |
| 2026-04-22 14:08 | 49.54155 | -2.80738 | 3547 ft | 282 kts | 214° |
| 2026-04-22 14:08 | 49.52690 | -2.82674 | 3173 ft | 270 kts | 214° |
| 2026-04-22 14:08 | 49.51322 | -2.84492 | 3024 ft | 250 kts | 213° |
| 2026-04-22 14:08 | 49.50074 | -2.86153 | 3035 ft | 225 kts | 212° |
| 2026-04-22 14:09 | 49.48909 | -2.87689 | 3020 ft | 218 kts | 212° |
| 2026-04-22 14:09 | 49.47744 | -2.89199 | 3032 ft | 220 kts | 212° |
| 2026-04-22 14:09 | 49.46574 | -2.90679 | 3032 ft | 211 kts | 206° |
| 2026-04-22 14:09 | 49.45299 | -2.91410 | 3034 ft | 186 kts | 174° |
| 2026-04-22 14:10 | 49.44102 | -2.91088 | 3040 ft | 165 kts | 148° |
| 2026-04-22 14:10 | 49.43269 | -2.90134 | 3031 ft | 139 kts | 127° |
| 2026-04-22 14:10 | 49.42931 | -2.89337 | 3047 ft | 131 kts | 115° |
| 2026-04-22 14:10 | 49.42700 | -2.87997 | 3036 ft | 131 kts | 98° |
| 2026-04-22 14:11 | 49.42729 | -2.86608 | 3032 ft | 129 kts | 92° |
| 2026-04-22 14:11 | 49.42770 | -2.85241 | 3028 ft | 127 kts | 92° |
| 2026-04-22 14:11 | 49.42811 | -2.83885 | 3028 ft | 127 kts | 92° |
| 2026-04-22 14:11 | 49.42851 | -2.82531 | 2969 ft | 127 kts | 92° |
| 2026-04-22 14:12 | 49.42891 | -2.81178 | 2837 ft | 126 kts | 92° |
| 2026-04-22 14:12 | 49.42931 | -2.79831 | 2690 ft | 126 kts | 91° |
| 2026-04-22 14:12 | 49.42971 | -2.78487 | 2529 ft | 126 kts | 91° |
| 2026-04-22 14:12 | 49.43010 | -2.77147 | 2365 ft | 126 kts | 91° |
| 2026-04-22 14:13 | 49.43050 | -2.75811 | 2195 ft | 125 kts | 91° |
| 2026-04-22 14:13 | 49.43088 | -2.74480 | 2026 ft | 124 kts | 90° |
| 2026-04-22 14:13 | 49.43127 | -2.73154 | 1856 ft | 124 kts | 90° |
| 2026-04-22 14:13 | 49.43165 | -2.71831 | 1685 ft | 124 kts | 90° |
| 2026-04-22 14:14 | 49.43204 | -2.70503 | 1512 ft | 124 kts | 88° |
| 2026-04-22 14:14 | 49.43242 | -2.69182 | 1343 ft | 124 kts | 87° |
| 2026-04-22 14:14 | 49.43280 | -2.67854 | 1169 ft | 124 kts | 87° |
| 2026-04-22 14:14 | 49.43321 | -2.66513 | 1004 ft | 126 kts | 86° |
| 2026-04-22 14:15 | 49.43367 | -2.65180 | 834 ft | 123 kts | 88° |
| 2026-04-22 14:15 | 49.43400 | -2.63851 | 657 ft | 124 kts | 88° |
| 2026-04-22 14:15 | 49.43436 | -2.62522 | 489 ft | 123 kts | 87° |
| 2026-04-22 14:15 | 49.43469 | -2.61205 | 326 ft | 123 kts | 87° |
| 2026-04-22 14:16 | 49.43502 | -2.60147 | 314 ft | 55 kts | 87° |
| 2026-04-22 14:16 | 49.43510 | -2.59714 | 328 ft | 28 kts | 88° |
| 2026-04-22 14:16 | 49.43517 | -2.59486 | 333 ft | 18 kts | 87° |
| 2026-04-22 14:16 | 49.43522 | -2.59303 | 335 ft | 17 kts | 88° |
| 2026-04-22 14:17 | 49.43454 | -2.59193 | 331 ft | 15 kts | 178° |
| 2026-04-22 14:17 | 49.43380 | -2.59238 | 334 ft | 11 kts | 243° |
| 2026-04-22 14:17 | 49.43370 | -2.59362 | 334 ft | 13 kts | 268° |
| 2026-04-22 14:17 | 49.43365 | -2.59523 | 331 ft | 16 kts | 266° |
| 2026-04-22 14:18 | 49.43358 | -2.59666 | 329 ft | 10 kts | 262° |
| 2026-04-22 14:18 | 49.43336 | -2.59686 | 328 ft | 4 kts | 189° |
| 2026-04-22 14:18 | 49.43318 | -2.59687 | 329 ft | 0 kts | 180° |
| 2026-04-22 14:18 | 49.43315 | -2.59687 | 329 ft | 0 kts | 180° |
| 2026-04-22 14:19 | 49.43312 | -2.59687 | 329 ft | 2 kts | 180° |
| 2026-04-22 14:19 | 49.43308 | -2.59687 | 329 ft | 0 kts | 180° |
| 2026-04-22 14:19 | 49.43300 | -2.59687 | 328 ft | 3 kts | 180° |
| 2026-04-22 14:20 | 49.43258 | -2.59684 | 328 ft | 2 kts | 178° |
| 2026-04-22 14:20 | 49.43256 | -2.59684 | 328 ft | 0 kts | 178° |